Marianne Danica — OWWO2 — position and weather

sailwx.info

Track history (hours):
 
Tides and Currents Weather Stations Pressure Air Temp Water Temp Dewpoint Dewpoint Depression Visibility Wind Speed Wind Dir Waves Ship Positions

Marianne Danica

Last reported at 2015-Mar-26 18:20 UTC. Time now 2015-Mar-26 19:17 UTC.
Position N 53°30' W 003°26'.

Length 71 m; draft 5.2 m.

Type: Cargo ship. MMSI: 219544000.

Date/timePositionNaut miles runAvg speedWind from/ knotsBaromVisibWave heightAir tempDewpointWater temp
2015-Mar-26 18:20N 53°30' W 003°26'0 0.1
2015-Mar-26 17:32N 53°29' W 003°26'0 0.1
2015-Mar-26 16:32N 53°29' W 003°25'0 0.0
2015-Mar-26 15:20N 53°29' W 003°25'0 0.0
2015-Mar-26 14:20N 53°29' W 003°25'0 0.0
2015-Mar-26 13:32N 53°29' W 003°25'0 0.0
2015-Mar-26 12:32N 53°29' W 003°25'0 0.0
2015-Mar-26 11:32N 53°29' W 003°25'0 0.0
2015-Mar-26 10:32N 53°29' W 003°25'0 0.0
2015-Mar-26 09:32N 53°29' W 003°25'0 0.0
2015-Mar-26 08:32N 53°29' W 003°25'0 0.1
2015-Mar-26 06:20N 53°30' W 003°26'0 0.1
2015-Mar-26 05:33N 53°30' W 003°26'  
2015-Mar-18 23:15N 35°58' W 005°37'9 9.3
2015-Mar-18 22:17N 36°01' W 005°26'6 8.5
2015-Mar-18 21:33N 36°02' W 005°19'265 9.8
2015-Mar-17 18:27N 36°48' E 000°06'  
Track history (hours):
 
Tides and Currents Weather Stations Pressure Air Temp Water Temp Dewpoint Dewpoint Depression Visibility Wind Speed Wind Dir Waves Ship Positions

Marianne Danica

Last reported at 2015-Mar-26 18:20 UTC. Time now 2015-Mar-26 19:17 UTC.
Position N 53°30' W 003°26'.

Length 71 m; draft 5.2 m.

Type: Cargo ship. MMSI: 219544000.

Date/timePositionNaut miles runAvg speedWind from/ knotsBaromVisibWave heightAir tempDewpointWater temp
2015-Mar-26 18:20N 53°30' W 003°26'0 0.1
2015-Mar-26 17:32N 53°29' W 003°26'0 0.1
2015-Mar-26 16:32N 53°29' W 003°25'0 0.0
2015-Mar-26 15:20N 53°29' W 003°25'0 0.0
2015-Mar-26 14:20N 53°29' W 003°25'0 0.0
2015-Mar-26 13:32N 53°29' W 003°25'0 0.0
2015-Mar-26 12:32N 53°29' W 003°25'0 0.0
2015-Mar-26 11:32N 53°29' W 003°25'0 0.0
2015-Mar-26 10:32N 53°29' W 003°25'0 0.0
2015-Mar-26 09:32N 53°29' W 003°25'0 0.0
2015-Mar-26 08:32N 53°29' W 003°25'0 0.1
2015-Mar-26 06:20N 53°30' W 003°26'0 0.1
2015-Mar-26 05:33N 53°30' W 003°26'  
2015-Mar-18 23:15N 35°58' W 005°37'9 9.3
2015-Mar-18 22:17N 36°01' W 005°26'6 8.5
2015-Mar-18 21:33N 36°02' W 005°19'265 9.8
2015-Mar-17 18:27N 36°48' E 000°06'  

Dump ship's entire track history